Time;durP1;ratioP1;P1;durP2;ratioP2;P2;SDS_P1;SDS_P2;PMS_P1;PMS_P2;Temp;Humidity;BMP_temperature;BMP_pressure;BME280_temperature;BME280_humidity;BME280_pressure;Samples;Min_cycle;Max_cycle;Signal;HPM_P1;HPM_P2
2021/01/19 00:01:27;;;;;;;4.80;2.50;;;1.50;99.90;;;;;;5065419;28;20222;-75
2021/01/19 00:03:52;;;;;;;4.30;2.50;;;1.50;99.90;;;;;;5060904;28;20267;-75
2021/01/19 00:06:18;;;;;;;7.20;2.33;;;1.50;99.90;;;;;;5064961;28;20200;-75
2021/01/19 00:08:43;;;;;;;5.23;2.70;;;1.50;99.90;;;;;;5062885;28;20682;-75
2021/01/19 00:11:09;;;;;;;4.87;2.20;;;1.50;99.90;;;;;;5063629;28;20182;-74
2021/01/19 00:13:34;;;;;;;4.37;2.20;;;1.50;99.90;;;;;;5064250;28;20234;-75
2021/01/19 00:16:00;;;;;;;5.47;2.47;;;1.50;99.90;;;;;;5062281;28;20534;-75
2021/01/19 00:18:25;;;;;;;2.80;2.03;;;1.50;99.90;;;;;;5064758;28;20189;-75
2021/01/19 00:20:51;;;;;;;4.33;2.30;;;1.50;99.90;;;;;;5061560;28;20672;-75
2021/01/19 00:23:16;;;;;;;5.33;2.87;;;1.50;99.90;;;;;;5064672;28;20256;-75
2021/01/19 00:25:42;;;;;;;2.83;2.60;;;1.50;99.90;;;;;;5063655;28;20208;-75
2021/01/19 00:28:09;;;;;;;2.80;2.43;;;1.50;99.90;;;;;;5063493;28;20173;-75
2021/01/19 00:30:39;;;;;;;3.00;2.10;;;1.50;99.90;;;;;;5063889;28;20852;-73
2021/01/19 00:33:05;;;;;;;7.77;2.10;;;1.40;99.90;;;;;;5061469;28;21004;-75
2021/01/19 00:35:31;;;;;;;4.30;2.03;;;1.40;99.90;;;;;;5062977;28;20544;-75
2021/01/19 00:37:59;;;;;;;9.57;2.30;;;1.40;99.90;;;;;;5061201;28;20533;-75
2021/01/19 00:40:25;;;;;;;3.07;1.63;;;1.40;99.90;;;;;;5064935;28;20697;-75
2021/01/19 00:42:51;;;;;;;3.37;2.10;;;1.40;99.90;;;;;;5061142;28;20923;-75
2021/01/19 00:45:16;;;;;;;5.63;2.50;;;1.40;99.90;;;;;;5063998;28;20435;-75
2021/01/19 00:47:43;;;;;;;3.00;2.53;;;1.40;99.90;;;;;;5061221;28;20177;-75
2021/01/19 00:50:09;;;;;;;2.53;2.33;;;1.40;99.90;;;;;;5062944;28;20200;-75
2021/01/19 00:52:34;;;;;;;5.03;2.33;;;1.40;99.90;;;;;;5063288;28;20451;-75
2021/01/19 00:55:00;;;;;;;5.77;2.40;;;1.40;99.90;;;;;;5060189;28;20509;-74
2021/01/19 00:57:25;;;;;;;5.00;2.50;;;1.40;99.90;;;;;;5064599;28;20209;-75
2021/01/19 00:59:51;;;;;;;4.77;2.83;;;1.30;99.90;;;;;;5060847;28;20201;-75
2021/01/19 01:02:17;;;;;;;4.83;2.40;;;1.30;99.90;;;;;;5063700;28;20173;-75
2021/01/19 01:04:43;;;;;;;7.53;2.60;;;1.30;99.90;;;;;;5061921;28;20443;-74
2021/01/19 01:07:09;;;;;;;6.67;2.97;;;1.30;99.90;;;;;;5062721;28;20540;-75
2021/01/19 01:09:37;;;;;;;3.77;2.40;;;1.30;99.90;;;;;;5063170;28;20480;-75
2021/01/19 01:12:03;;;;;;;15.00;3.10;;;1.30;99.90;;;;;;5061302;28;20701;-75
2021/01/19 01:14:29;;;;;;;4.40;2.30;;;1.30;99.90;;;;;;5062331;28;20548;-75
2021/01/19 01:16:55;;;;;;;3.00;2.70;;;1.20;99.90;;;;;;5061282;28;20436;-75
2021/01/19 01:19:21;;;;;;;1.80;1.70;;;1.20;99.90;;;;;;5064136;28;20449;-75
2021/01/19 01:21:46;;;;;;;6.03;3.17;;;1.20;99.90;;;;;;5062087;28;20833;-75
2021/01/19 01:24:12;;;;;;;7.23;2.00;;;1.20;99.90;;;;;;5060468;28;20169;-75
2021/01/19 01:26:37;;;;;;;2.20;1.90;;;1.20;99.90;;;;;;5063911;28;20203;-75
2021/01/19 01:29:04;;;;;;;1.70;1.60;;;1.20;99.90;;;;;;5063900;28;20183;-75
2021/01/19 01:31:29;;;;;;;4.50;1.57;;;1.30;99.90;;;;;;5061633;28;20238;-75
2021/01/19 01:33:55;;;;;;;3.40;1.63;;;1.30;99.90;;;;;;5060780;28;20459;-75
2021/01/19 01:36:21;;;;;;;5.50;1.30;;;1.30;99.90;;;;;;5063269;28;20805;-75
2021/01/19 01:38:46;;;;;;;5.70;1.70;;;1.40;99.90;;;;;;5059865;28;20586;-74
2021/01/19 01:41:15;;;;;;;1.43;1.10;;;1.40;99.90;;;;;;5061334;28;20192;-74
2021/01/19 01:43:40;;;;;;;4.17;1.23;;;1.40;99.90;;;;;;5065266;28;20697;-75
2021/01/19 01:46:08;;;;;;;1.80;1.70;;;1.50;99.90;;;;;;5058818;28;20488;-75
2021/01/19 01:48:33;;;;;;;4.97;1.77;;;1.50;99.90;;;;;;5061395;28;20207;-75
2021/01/19 01:50:59;;;;;;;1.60;1.50;;;1.60;99.90;;;;;;5058846;28;20969;-74
2021/01/19 01:53:25;;;;;;;3.63;1.87;;;1.60;99.90;;;;;;5061343;28;20550;-74
2021/01/19 01:55:50;;;;;;;3.20;1.47;;;1.60;99.90;;;;;;5059900;28;20357;-75
2021/01/19 01:58:16;;;;;;;3.80;1.60;;;1.60;99.90;;;;;;5061376;28;20999;-75
2021/01/19 02:00:42;;;;;;;3.00;1.90;;;1.60;99.90;;;;;;5060571;28;20295;-75
2021/01/19 02:03:07;;;;;;;1.60;1.50;;;1.60;99.90;;;;;;5059891;28;20177;-75
2021/01/19 02:05:33;;;;;;;4.40;2.10;;;1.60;99.90;;;;;;5060628;28;20203;-74
2021/01/19 02:08:15;;;;;;;4.07;2.03;;;1.60;99.90;;;;;;5061416;28;20178;-75
2021/01/19 02:11:10;;;;;;;2.63;1.60;;;1.60;99.90;;;;;;5061160;28;20189;-75
2021/01/19 02:13:53;;;;;;;4.73;1.93;;;1.50;99.90;;;;;;5060225;28;20537;-76
2021/01/19 02:16:59;;;;;;;4.67;1.67;;;1.50;99.90;;;;;;5061378;28;20445;-75
2021/01/19 02:20:02;;;;;;;3.27;1.60;;;1.50;99.90;;;;;;5058899;28;20483;-75
2021/01/19 02:22:57;;;;;;;1.47;1.30;;;1.50;99.90;;;;;;5059847;28;20830;-75
2021/01/19 02:25:57;;;;;;;1.73;1.63;;;1.50;99.90;;;;;;5044046;28;21047;-75
2021/01/19 02:28:42;;;;;;;4.83;1.67;;;1.50;99.90;;;;;;5061850;28;20409;-75
2021/01/19 02:31:41;;;;;;;2.13;1.70;;;1.50;99.90;;;;;;5058780;28;20428;-75
2021/01/19 02:34:18;;;;;;;7.17;2.10;;;1.50;99.90;;;;;;5060324;28;20399;-75
2021/01/19 02:36:58;;;;;;;3.63;1.70;;;1.50;99.90;;;;;;5061344;28;20394;-75
2021/01/19 02:39:41;;;;;;;1.70;1.60;;;1.50;99.90;;;;;;5059254;28;20462;-75
2021/01/19 02:42:10;;;;;;;3.50;1.60;;;1.60;99.90;;;;;;5063690;28;20425;-75
2021/01/19 02:44:38;;;;;;;2.77;1.87;;;1.60;99.90;;;;;;5061684;28;20429;-75
2021/01/19 02:47:04;;;;;;;4.47;1.90;;;1.60;99.90;;;;;;5059852;28;20536;-75
2021/01/19 02:49:30;;;;;;;3.43;1.87;;;1.60;99.90;;;;;;5062247;28;20522;-76
2021/01/19 02:51:58;;;;;;;5.70;1.83;;;1.60;99.90;;;;;;5059438;28;20640;-75
2021/01/19 02:54:24;;;;;;;1.23;1.23;;;1.60;99.90;;;;;;5059353;28;20208;-75
2021/01/19 02:57:01;;;;;;;2.13;1.60;;;1.60;99.90;;;;;;5063949;28;20900;-75
2021/01/19 02:59:40;;;;;;;2.40;1.53;;;1.60;99.90;;;;;;5060362;28;20236;-75
2021/01/19 03:02:11;;;;;;;2.10;1.90;;;1.70;99.90;;;;;;5058100;28;21011;-75
2021/01/19 03:04:38;;;;;;;2.30;1.50;;;1.70;99.90;;;;;;5061392;28;20911;-76
2021/01/19 03:07:07;;;;;;;2.00;1.80;;;1.70;99.90;;;;;;5061851;28;20432;-75
2021/01/19 03:09:41;;;;;;;6.33;1.53;;;1.70;99.90;;;;;;5059810;28;20485;-74
2021/01/19 03:12:09;;;;;;;3.00;1.30;;;1.70;99.90;;;;;;5060092;28;20456;-75
2021/01/19 03:14:36;;;;;;;5.03;1.80;;;1.80;99.90;;;;;;5060212;28;20480;-75
2021/01/19 03:17:12;;;;;;;1.03;0.93;;;1.80;99.90;;;;;;5060633;28;20398;-75
2021/01/19 03:19:42;;;;;;;1.70;1.30;;;1.80;99.90;;;;;;5060892;28;20524;-76
2021/01/19 03:22:08;;;;;;;1.80;1.70;;;1.80;99.90;;;;;;5059180;28;20929;-75
2021/01/19 03:24:34;;;;;;;1.97;1.87;;;1.80;99.90;;;;;;5059625;28;20458;-75
2021/01/19 03:27:00;;;;;;;4.63;2.10;;;1.80;99.90;;;;;;5057716;28;20428;-75
2021/01/19 03:29:26;;;;;;;2.77;1.17;;;1.80;99.90;;;;;;5061076;28;20263;-76
2021/01/19 03:31:51;;;;;;;2.00;1.90;;;1.70;99.90;;;;;;5058583;28;20270;-75
2021/01/19 03:34:18;;;;;;;2.40;1.50;;;1.70;99.90;;;;;;5059669;28;20613;-75
2021/01/19 03:36:43;;;;;;;4.30;3.47;;;1.70;99.90;;;;;;5060962;28;20190;-75
2021/01/19 03:39:09;;;;;;;1.23;1.20;;;1.70;99.90;;;;;;5060300;28;20791;-75
2021/01/19 03:41:35;;;;;;;2.03;1.83;;;1.70;99.90;;;;;;5059740;28;20223;-75
2021/01/19 03:44:01;;;;;;;2.60;1.73;;;1.70;99.90;;;;;;5066809;28;20538;-76
2021/01/19 03:46:26;;;;;;;4.27;1.53;;;1.70;99.90;;;;;;5062342;28;20208;-76
2021/01/19 03:48:52;;;;;;;5.97;1.73;;;1.70;99.90;;;;;;5058046;28;20185;-75
2021/01/19 03:51:18;;;;;;;1.40;1.30;;;1.70;99.90;;;;;;5061437;28;20181;-75
2021/01/19 03:53:44;;;;;;;1.60;1.50;;;1.70;99.90;;;;;;5063889;28;20446;-75
2021/01/19 03:56:09;;;;;;;2.70;1.60;;;1.70;99.90;;;;;;5062056;28;20422;-75
2021/01/19 03:58:35;;;;;;;2.23;1.50;;;1.70;99.90;;;;;;5063862;28;20276;-75
2021/01/19 04:01:00;;;;;;;3.90;1.80;;;1.70;99.90;;;;;;5062190;28;20684;-73
2021/01/19 04:03:26;;;;;;;2.77;2.57;;;1.80;99.90;;;;;;5065785;28;20266;-76
2021/01/19 04:05:51;;;;;;;3.77;1.73;;;1.80;99.90;;;;;;5059051;28;20201;-76
2021/01/19 04:08:17;;;;;;;3.90;1.30;;;1.70;99.90;;;;;;5064823;28;20184;-76
2021/01/19 04:10:48;;;;;;;3.03;1.63;;;1.70;99.90;;;;;;5063618;28;20567;-75
2021/01/19 04:13:19;;;;;;;3.30;1.50;;;1.70;99.90;;;;;;5063376;28;20638;-75
2021/01/19 04:15:46;;;;;;;1.70;1.60;;;1.60;99.90;;;;;;5061855;28;20468;-75
2021/01/19 04:18:13;;;;;;;2.00;1.40;;;1.60;99.90;;;;;;5063899;28;20877;-75
2021/01/19 04:20:38;;;;;;;6.60;2.63;;;1.60;99.90;;;;;;5062650;28;20453;-76
2021/01/19 04:23:04;;;;;;;5.33;1.50;;;1.60;99.90;;;;;;5063003;28;20454;-75
2021/01/19 04:25:29;;;;;;;2.40;1.93;;;1.50;99.90;;;;;;5067571;28;20240;-75
2021/01/19 04:27:55;;;;;;;2.53;1.67;;;1.50;99.90;;;;;;5065553;28;20230;-75
2021/01/19 04:30:21;;;;;;;2.50;1.60;;;1.50;99.90;;;;;;5063296;28;20188;-75
2021/01/19 04:32:48;;;;;;;2.83;1.37;;;1.40;99.90;;;;;;5064136;28;20249;-75
2021/01/19 04:35:14;;;;;;;1.70;1.60;;;1.40;99.90;;;;;;5064004;28;20911;-75
2021/01/19 04:37:40;;;;;;;1.80;1.67;;;1.30;99.90;;;;;;5061091;28;20443;-75
2021/01/19 04:40:06;;;;;;;3.80;1.57;;;1.20;99.90;;;;;;5062583;28;21001;-75
2021/01/19 04:42:37;;;;;;;2.00;1.60;;;1.20;99.90;;;;;;5067024;28;20178;-75
2021/01/19 04:45:10;;;;;;;3.13;1.40;;;1.20;99.90;;;;;;5067403;28;20458;-75
2021/01/19 04:47:37;;;;;;;3.70;2.00;;;1.10;99.90;;;;;;5060106;28;20538;-75
2021/01/19 04:50:06;;;;;;;2.63;1.47;;;1.10;99.90;;;;;;5063523;28;21000;-75
2021/01/19 04:52:33;;;;;;;2.20;1.63;;;1.10;99.90;;;;;;5062897;28;20414;-75
2021/01/19 04:55:04;;;;;;;1.97;1.87;;;1.20;99.90;;;;;;5061740;28;20440;-75
2021/01/19 04:57:32;;;;;;;3.10;1.97;;;1.10;99.90;;;;;;5061989;28;20471;-75
2021/01/19 05:00:13;;;;;;;3.90;1.17;;;1.20;99.90;;;;;;5060191;28;20922;-76
2021/01/19 05:03:03;;;;;;;4.13;2.00;;;1.20;99.90;;;;;;5063475;28;20434;-75
2021/01/19 05:05:38;;;;;;;3.23;1.30;;;1.20;99.90;;;;;;5061453;28;20491;-75
2021/01/19 05:08:16;;;;;;;8.10;2.10;;;1.20;99.90;;;;;;5062889;28;20782;-76
2021/01/19 05:10:59;;;;;;;2.40;1.90;;;1.20;99.90;;;;;;5062523;28;20505;-75
2021/01/19 05:13:50;;;;;;;3.43;1.67;;;1.20;99.90;;;;;;5061325;28;20468;-75
2021/01/19 05:16:18;;;;;;;8.60;2.20;;;1.10;99.90;;;;;;5061197;28;20459;-75
2021/01/19 05:18:44;;;;;;;2.03;1.30;;;1.10;99.90;;;;;;5059899;28;20413;-75
2021/01/19 05:21:12;;;;;;;1.97;1.60;;;1.00;99.90;;;;;;5061824;28;20439;-75
2021/01/19 05:23:38;;;;;;;2.03;1.93;;;1.10;99.90;;;;;;5061376;28;20409;-75
2021/01/19 05:26:06;;;;;;;2.83;1.90;;;1.10;99.90;;;;;;5061263;28;20419;-75
2021/01/19 05:28:41;;;;;;;3.53;1.73;;;1.10;99.90;;;;;;5061490;28;20212;-76
2021/01/19 05:31:19;;;;;;;3.67;1.90;;;1.00;99.90;;;;;;5062323;28;20465;-74
2021/01/19 05:33:54;;;;;;;4.23;1.80;;;1.10;99.90;;;;;;5061098;28;20503;-75
2021/01/19 05:36:21;;;;;;;3.30;2.23;;;1.10;99.90;;;;;;5078722;28;20425;-75
2021/01/19 05:38:52;;;;;;;4.23;1.73;;;1.10;99.90;;;;;;5060794;28;20427;-75
2021/01/19 05:41:40;;;;;;;4.40;1.90;;;1.10;99.90;;;;;;5063147;28;20443;-74
2021/01/19 05:44:16;;;;;;;5.00;1.57;;;1.00;99.90;;;;;;5064736;28;20450;-74
2021/01/19 05:47:03;;;;;;;6.83;1.63;;;1.00;99.90;;;;;;5062802;28;20791;-75
2021/01/19 05:49:33;;;;;;;3.37;1.77;;;1.00;99.90;;;;;;5060084;28;20406;-75
2021/01/19 05:52:06;;;;;;;3.60;2.50;;;1.00;99.90;;;;;;5060913;28;20413;-75
2021/01/19 05:54:46;;;;;;;6.80;3.50;;;1.00;99.90;;;;;;5060553;28;20938;-77
2021/01/19 05:57:12;;;;;;;10.87;4.17;;;0.90;99.90;;;;;;5061220;28;20451;-75
2021/01/19 05:59:40;;;;;;;2.50;1.37;;;1.00;99.90;;;;;;5061208;28;20980;-74
2021/01/19 06:02:15;;;;;;;4.73;2.30;;;1.00;99.90;;;;;;5058532;28;20433;-74
2021/01/19 06:04:47;;;;;;;4.20;2.40;;;1.00;99.90;;;;;;5061693;28;20441;-75
2021/01/19 06:07:14;;;;;;;3.50;2.40;;;1.10;99.90;;;;;;5061230;28;20438;-74
2021/01/19 06:09:43;;;;;;;4.50;3.20;;;1.10;99.90;;;;;;5061489;28;20597;-73
2021/01/19 06:12:09;;;;;;;1.70;1.43;;;1.10;99.90;;;;;;5063168;28;20437;-74
2021/01/19 06:14:35;;;;;;;2.30;1.70;;;1.10;99.90;;;;;;5062597;28;20939;-75
2021/01/19 06:17:10;;;;;;;2.50;2.20;;;1.10;99.90;;;;;;5059322;28;20419;-75
2021/01/19 06:19:36;;;;;;;5.23;2.30;;;1.10;99.90;;;;;;5060832;28;20496;-74
2021/01/19 06:22:08;;;;;;;1.90;1.53;;;1.10;99.90;;;;;;5060773;28;20425;-75
2021/01/19 06:24:39;;;;;;;2.50;1.67;;;1.10;99.90;;;;;;5065362;28;20446;-74
2021/01/19 06:27:06;;;;;;;2.20;1.97;;;1.10;99.90;;;;;;5060729;28;20402;-74
2021/01/19 06:29:32;;;;;;;2.80;1.40;;;1.00;99.90;;;;;;5062026;28;20401;-74
2021/01/19 06:32:00;;;;;;;4.47;1.90;;;1.00;99.90;;;;;;5059659;28;20427;-74
2021/01/19 06:34:31;;;;;;;1.60;1.47;;;1.10;99.90;;;;;;5059048;28;20437;-74
2021/01/19 06:36:58;;;;;;;3.30;1.90;;;1.10;99.90;;;;;;5059695;28;20420;-75
2021/01/19 06:39:41;;;;;;;3.43;1.87;;;1.10;99.90;;;;;;5059942;28;20433;-75
2021/01/19 06:42:10;;;;;;;4.97;2.87;;;1.00;99.90;;;;;;5060280;28;20913;-75
2021/01/19 06:44:48;;;;;;;2.60;2.40;;;1.00;99.90;;;;;;5061742;28;20948;-74
2021/01/19 06:47:16;;;;;;;3.43;1.97;;;1.00;99.90;;;;;;5059406;28;20578;-74
2021/01/19 06:49:42;;;;;;;6.50;2.33;;;1.00;99.90;;;;;;5061314;28;20428;-75
2021/01/19 06:52:10;;;;;;;3.13;1.70;;;1.00;99.90;;;;;;5060283;28;20526;-75
2021/01/19 06:54:54;;;;;;;1.87;1.77;;;0.90;99.90;;;;;;5064971;28;20440;-75
2021/01/19 06:57:25;;;;;;;2.10;2.00;;;0.90;99.90;;;;;;5062399;28;20794;-75
2021/01/19 07:00:05;;;;;;;2.33;1.80;;;0.80;99.90;;;;;;5058954;28;20455;-74
2021/01/19 07:02:38;;;;;;;12.93;2.57;;;0.80;99.90;;;;;;5059347;28;20423;-75
2021/01/19 07:05:13;;;;;;;3.23;1.70;;;0.80;99.90;;;;;;5061166;28;20508;-74
2021/01/19 07:07:41;;;;;;;2.70;2.00;;;0.80;99.90;;;;;;5057956;28;20432;-72
2021/01/19 07:10:24;;;;;;;3.20;1.83;;;0.70;99.90;;;;;;5061042;28;20768;-73
2021/01/19 07:13:01;;;;;;;4.37;2.13;;;0.70;99.90;;;;;;5060079;28;20864;-73
2021/01/19 07:15:51;;;;;;;3.97;1.60;;;0.70;99.90;;;;;;5060878;28;20967;-75
2021/01/19 07:18:17;;;;;;;5.97;2.23;;;0.80;99.90;;;;;;5062160;28;20511;-72
2021/01/19 07:21:13;;;;;;;3.23;1.73;;;0.80;99.90;;;;;;5060286;28;20477;-72
2021/01/19 07:23:44;;;;;;;2.60;2.40;;;0.80;99.90;;;;;;5052178;28;20421;-73
2021/01/19 07:26:16;;;;;;;5.10;2.53;;;0.80;99.90;;;;;;5057626;28;20473;-73
2021/01/19 07:28:41;;;;;;;1.87;1.77;;;0.80;99.90;;;;;;5068417;28;20472;-72
2021/01/19 07:31:08;;;;;;;1.40;1.30;;;0.80;99.90;;;;;;5065480;28;20417;-72
2021/01/19 07:33:36;;;;;;;6.20;1.50;;;0.80;99.90;;;;;;5063702;28;20187;-72
2021/01/19 07:36:03;;;;;;;3.63;2.00;;;0.80;99.90;;;;;;5062013;28;20413;-72
2021/01/19 07:38:28;;;;;;;1.97;1.73;;;0.80;99.90;;;;;;5065611;28;20435;-72
2021/01/19 07:40:55;;;;;;;4.30;2.13;;;0.80;99.90;;;;;;5062382;28;20534;-72
2021/01/19 07:43:21;;;;;;;3.63;1.60;;;0.80;99.90;;;;;;5069674;28;20209;-73
2021/01/19 07:45:51;;;;;;;1.90;1.70;;;0.90;99.90;;;;;;5090679;28;20453;-73
2021/01/19 07:48:32;;;;;;;2.27;1.93;;;0.90;99.90;;;;;;5063940;28;20463;-74
2021/01/19 07:51:12;;;;;;;3.30;1.83;;;0.90;99.90;;;;;;5065696;28;20412;-73
2021/01/19 07:53:54;;;;;;;6.80;1.80;;;1.00;99.90;;;;;;5063395;28;20849;-74
2021/01/19 07:56:30;;;;;;;3.07;2.17;;;1.10;99.90;;;;;;5065463;28;20575;-75
2021/01/19 07:58:58;;;;;;;1.87;1.73;;;1.10;99.90;;;;;;5062102;28;20416;-73
2021/01/19 08:01:27;;;;;;;3.00;2.00;;;1.10;99.90;;;;;;5064704;28;20431;-75
2021/01/19 08:03:53;;;;;;;5.40;1.77;;;1.20;99.90;;;;;;5062723;28;20525;-73
2021/01/19 08:06:30;;;;;;;2.93;2.27;;;1.30;99.90;;;;;;5070772;28;20452;-73
2021/01/19 08:08:56;;;;;;;7.73;2.70;;;1.30;99.90;;;;;;5069116;28;20502;-73
2021/01/19 08:11:21;;;;;;;2.63;2.10;;;1.30;99.90;;;;;;5064049;28;20820;-71
2021/01/19 08:13:57;;;;;;;1.93;1.70;;;1.40;99.90;;;;;;5061382;28;20723;-74
2021/01/19 08:16:28;;;;;;;4.50;2.13;;;1.40;99.90;;;;;;5064152;28;20290;-74
2021/01/19 08:19:04;;;;;;;5.07;2.50;;;1.60;99.90;;;;;;5061578;28;20412;-74
2021/01/19 08:21:33;;;;;;;4.03;1.83;;;1.60;99.90;;;;;;5063178;28;20417;-73
2021/01/19 08:24:08;;;;;;;1.83;1.63;;;1.70;99.90;;;;;;5061577;28;20406;-73
2021/01/19 08:26:35;;;;;;;3.93;2.07;;;1.80;99.90;;;;;;5065096;28;20540;-74
2021/01/19 08:29:03;;;;;;;3.07;2.57;;;1.90;99.90;;;;;;5063507;28;20423;-72
2021/01/19 08:31:30;;;;;;;4.37;2.43;;;2.00;99.90;;;;;;5062990;28;20471;-72
2021/01/19 08:34:00;;;;;;;8.33;2.20;;;2.00;99.90;;;;;;5066134;28;20808;-72
2021/01/19 08:36:27;;;;;;;3.40;2.43;;;2.00;99.90;;;;;;5061076;28;20835;-71
2021/01/19 08:38:55;;;;;;;2.87;2.10;;;2.20;99.90;;;;;;5064129;28;20425;-72
2021/01/19 08:41:20;;;;;;;6.27;2.90;;;2.20;99.90;;;;;;5063515;28;20439;-72
2021/01/19 08:43:54;;;;;;;2.93;2.30;;;2.30;99.90;;;;;;5069514;28;20482;-72
2021/01/19 08:46:19;;;;;;;2.73;2.53;;;2.30;99.90;;;;;;5061630;28;20208;-72
2021/01/19 08:48:45;;;;;;;4.17;2.10;;;2.40;99.90;;;;;;5062988;28;20425;-72
2021/01/19 08:51:21;;;;;;;2.57;2.30;;;2.30;99.90;;;;;;5062872;28;20228;-72
2021/01/19 08:53:47;;;;;;;3.27;2.50;;;2.30;99.90;;;;;;5057841;28;20660;-72
2021/01/19 08:56:18;;;;;;;3.90;2.70;;;2.40;99.90;;;;;;5062800;28;20476;-73
2021/01/19 08:58:43;;;;;;;6.23;3.13;;;2.50;99.90;;;;;;5061693;28;20872;-72
2021/01/19 09:01:09;;;;;;;9.20;2.60;;;2.60;99.90;;;;;;5062541;28;20995;-73
2021/01/19 09:03:34;;;;;;;3.33;2.40;;;2.90;99.90;;;;;;5062760;28;20181;-73
2021/01/19 09:06:01;;;;;;;5.77;3.10;;;2.90;99.90;;;;;;5062957;28;20206;-72
2021/01/19 09:08:28;;;;;;;3.47;2.43;;;2.80;99.90;;;;;;5062805;28;20217;-72
2021/01/19 09:11:08;;;;;;;4.30;2.00;;;2.80;99.90;;;;;;5060742;28;20456;-73
2021/01/19 09:13:39;;;;;;;2.80;2.47;;;2.70;99.90;;;;;;5061905;28;20446;-73
2021/01/19 09:16:07;;;;;;;3.83;2.60;;;2.70;99.90;;;;;;5061565;28;20444;-73
2021/01/19 09:18:33;;;;;;;2.33;2.13;;;2.70;99.90;;;;;;5063233;28;20398;-73
2021/01/19 09:21:06;;;;;;;5.00;2.60;;;2.60;99.90;;;;;;5062880;28;20471;-75
2021/01/19 09:23:33;;;;;;;9.23;2.30;;;2.60;99.90;;;;;;5060466;28;20429;-74
2021/01/19 09:26:04;;;;;;;2.93;2.60;;;2.60;99.90;;;;;;5057095;28;20470;-73
2021/01/19 09:28:32;;;;;;;8.60;3.07;;;2.60;99.90;;;;;;5064396;28;20814;-74
2021/01/19 09:31:28;;;;;;;5.87;2.47;;;2.60;99.90;;;;;;5062880;28;20878;-74
2021/01/19 09:33:54;;;;;;;3.60;2.23;;;2.60;99.90;;;;;;5063035;28;20484;-73
2021/01/19 09:36:21;;;;;;;3.73;2.20;;;2.50;99.90;;;;;;5056711;28;20460;-72
2021/01/19 09:38:48;;;;;;;9.30;2.30;;;2.50;99.90;;;;;;5060939;28;20498;-73
2021/01/19 09:41:24;;;;;;;3.33;2.07;;;2.50;99.90;;;;;;5061954;28;20970;-73
2021/01/19 09:43:55;;;;;;;3.17;2.50;;;2.40;99.90;;;;;;5061236;28;20943;-72
2021/01/19 09:46:26;;;;;;;7.53;3.00;;;2.60;99.90;;;;;;5058311;28;20427;-71
2021/01/19 09:48:55;;;;;;;4.10;2.70;;;2.70;99.90;;;;;;5061877;28;20413;-71
2021/01/19 09:51:29;;;;;;;8.03;2.83;;;2.80;99.90;;;;;;5060022;28;20485;-71
2021/01/19 09:53:58;;;;;;;8.47;2.73;;;2.80;99.90;;;;;;5063060;28;20950;-71
2021/01/19 09:56:25;;;;;;;3.87;2.60;;;2.80;99.90;;;;;;5061520;28;20785;-71
2021/01/19 09:59:07;;;;;;;2.67;1.90;;;2.90;99.90;;;;;;5064560;28;20431;-71
2021/01/19 10:01:34;;;;;;;4.73;2.70;;;2.90;99.90;;;;;;5060404;28;20892;-69
2021/01/19 10:03:59;;;;;;;8.37;2.80;;;2.90;99.90;;;;;;5061714;28;20798;-72
2021/01/19 10:06:26;;;;;;;6.33;3.60;;;3.00;99.90;;;;;;5059822;28;20419;-72
2021/01/19 10:08:53;;;;;;;6.43;3.53;;;3.10;99.90;;;;;;5061388;28;20178;-71
2021/01/19 10:11:33;;;;;;;3.83;3.07;;;3.10;99.90;;;;;;5060366;28;20515;-72
2021/01/19 10:14:09;;;;;;;4.07;2.40;;;3.10;99.90;;;;;;5061163;28;20473;-74
2021/01/19 10:16:35;;;;;;;5.13;2.83;;;3.00;99.90;;;;;;5060658;28;20837;-76
2021/01/19 10:19:00;;;;;;;2.93;2.47;;;3.10;99.90;;;;;;5060769;28;20514;-74
2021/01/19 10:21:31;;;;;;;6.80;2.87;;;3.10;99.90;;;;;;5061523;28;20227;-72
2021/01/19 10:23:57;;;;;;;5.03;3.97;;;3.10;99.90;;;;;;5058299;28;20189;-72
2021/01/19 10:26:31;;;;;;;7.17;2.90;;;3.20;99.90;;;;;;5062646;28;20466;-72
2021/01/19 10:28:58;;;;;;;5.17;2.67;;;3.30;99.90;;;;;;5058712;28;20843;-72
2021/01/19 10:31:26;;;;;;;6.17;3.30;;;3.30;99.90;;;;;;5061941;28;20478;-73
2021/01/19 10:33:57;;;;;;;4.53;2.40;;;3.30;99.90;;;;;;5059138;28;20450;-73
2021/01/19 10:36:27;;;;;;;3.90;2.60;;;3.20;99.90;;;;;;5062681;28;20458;-74
2021/01/19 10:38:54;;;;;;;7.23;3.80;;;3.30;99.90;;;;;;5057946;28;20425;-74
2021/01/19 10:41:27;;;;;;;3.53;2.50;;;3.30;99.90;;;;;;5059106;28;20466;-74
2021/01/19 10:43:53;;;;;;;4.90;2.80;;;3.30;99.90;;;;;;5059879;28;20960;-75
2021/01/19 10:46:24;;;;;;;2.57;2.37;;;3.20;99.90;;;;;;5060773;28;20459;-73
2021/01/19 10:49:12;;;;;;;6.67;2.60;;;3.20;99.90;;;;;;5059531;28;20439;-73
2021/01/19 10:51:38;;;;;;;4.53;2.93;;;3.20;99.90;;;;;;5059557;28;20455;-72
2021/01/19 10:54:07;;;;;;;6.07;3.10;;;3.10;99.90;;;;;;5064993;28;21046;-73
2021/01/19 10:56:33;;;;;;;6.40;2.30;;;3.20;99.90;;;;;;5060327;28;20855;-73
2021/01/19 10:58:58;;;;;;;4.60;2.77;;;3.20;99.90;;;;;;5060108;28;20446;-73
2021/01/19 11:01:27;;;;;;;6.80;3.37;;;3.20;99.90;;;;;;5057923;28;20856;-73
2021/01/19 11:03:54;;;;;;;4.30;2.10;;;3.30;99.90;;;;;;5067084;28;20539;-73
2021/01/19 11:06:20;;;;;;;7.60;2.20;;;3.40;99.90;;;;;;5071752;28;20462;-74
2021/01/19 11:08:46;;;;;;;5.13;2.77;;;3.40;99.90;;;;;;5098902;28;20424;-72
2021/01/19 11:11:12;;;;;;;6.47;2.60;;;3.50;99.90;;;;;;5066971;28;20554;-73
2021/01/19 11:13:38;;;;;;;11.47;3.60;;;3.50;99.90;;;;;;5072969;28;20189;-73
2021/01/19 11:16:04;;;;;;;4.70;2.70;;;3.60;99.90;;;;;;5065581;28;20924;-73
2021/01/19 11:18:30;;;;;;;9.93;2.20;;;3.70;99.90;;;;;;5065482;28;20192;-71
2021/01/19 11:20:55;;;;;;;4.80;3.00;;;3.90;99.90;;;;;;5068783;28;20964;-71
2021/01/19 11:23:21;;;;;;;4.07;2.20;;;3.80;99.90;;;;;;5064673;28;20181;-72
2021/01/19 11:25:47;;;;;;;3.10;2.63;;;3.90;99.90;;;;;;5084214;28;20311;-71
2021/01/19 11:28:13;;;;;;;5.37;2.10;;;4.00;99.90;;;;;;5068369;28;20232;-71
2021/01/19 11:30:39;;;;;;;2.20;1.67;;;4.10;99.90;;;;;;5067040;28;20182;-71
2021/01/19 11:33:05;;;;;;;2.87;2.40;;;4.00;99.90;;;;;;5064350;28;20935;-71
2021/01/19 11:35:35;;;;;;;6.40;2.73;;;4.10;99.90;;;;;;5065766;28;20300;-72
2021/01/19 11:38:02;;;;;;;3.13;2.00;;;4.10;99.90;;;;;;5066273;28;20618;-71
2021/01/19 11:40:28;;;;;;;2.60;1.80;;;4.20;99.90;;;;;;5069432;28;20471;-71
2021/01/19 11:42:53;;;;;;;13.40;2.77;;;4.20;99.90;;;;;;5065313;28;20420;-71
2021/01/19 11:45:19;;;;;;;1.90;1.43;;;4.20;99.90;;;;;;5065413;28;20222;-71
2021/01/19 11:47:44;;;;;;;2.50;2.03;;;4.20;99.90;;;;;;5067462;28;20183;-72
2021/01/19 11:50:10;;;;;;;3.47;1.60;;;4.30;99.90;;;;;;5066347;28;20196;-72
2021/01/19 11:52:36;;;;;;;3.10;1.70;;;4.30;99.90;;;;;;5067540;28;20186;-73
2021/01/19 11:55:02;;;;;;;5.40;1.60;;;4.30;99.90;;;;;;5061776;28;20529;-71
2021/01/19 11:57:27;;;;;;;4.63;2.07;;;4.40;99.90;;;;;;5068758;28;20567;-72
2021/01/19 11:59:53;;;;;;;5.30;2.20;;;4.40;99.90;;;;;;5064528;28;20471;-71
2021/01/19 12:02:18;;;;;;;5.43;1.73;;;4.40;99.90;;;;;;5065771;28;20188;-71
2021/01/19 12:04:45;;;;;;;3.40;2.00;;;4.40;99.90;;;;;;5065030;28;20697;-71
2021/01/19 12:07:11;;;;;;;4.13;1.97;;;4.40;99.90;;;;;;5065324;28;20177;-70
2021/01/19 12:09:36;;;;;;;5.63;2.70;;;4.40;99.90;;;;;;5065239;28;20408;-71
2021/01/19 12:12:02;;;;;;;7.60;2.97;;;4.40;99.90;;;;;;5065133;28;20273;-71
2021/01/19 12:14:28;;;;;;;4.20;2.60;;;4.50;99.90;;;;;;5061926;28;20206;-72
2021/01/19 12:16:57;;;;;;;3.63;2.17;;;4.50;99.90;;;;;;5061987;28;20585;-71
2021/01/19 12:19:24;;;;;;;2.60;2.40;;;4.50;99.90;;;;;;5061883;28;20241;-72
2021/01/19 12:21:51;;;;;;;7.40;3.60;;;4.50;99.90;;;;;;5062555;28;20986;-70
2021/01/19 12:24:17;;;;;;;3.80;2.63;;;4.60;99.90;;;;;;5064216;28;20419;-71
2021/01/19 12:26:48;;;;;;;12.43;2.97;;;4.60;99.90;;;;;;5062357;28;20910;-72
2021/01/19 12:29:14;;;;;;;3.10;2.57;;;4.70;99.90;;;;;;5069831;28;20406;-72
2021/01/19 12:31:40;;;;;;;4.43;2.30;;;4.80;99.90;;;;;;5062292;28;20821;-72
2021/01/19 12:34:05;;;;;;;4.67;3.10;;;4.90;99.90;;;;;;5063695;28;20383;-71
2021/01/19 12:36:31;;;;;;;4.10;2.73;;;4.80;99.90;;;;;;5062538;28;20468;-72
2021/01/19 12:39:03;;;;;;;6.33;2.60;;;4.90;99.90;;;;;;5060844;28;20208;-72
2021/01/19 12:41:30;;;;;;;4.83;2.13;;;4.90;99.90;;;;;;5061183;28;20900;-74
2021/01/19 12:43:55;;;;;;;4.17;2.07;;;5.00;99.90;;;;;;5067922;28;20436;-71
2021/01/19 12:46:21;;;;;;;2.07;1.87;;;5.00;99.90;;;;;;5061617;28;20512;-72
2021/01/19 12:48:47;;;;;;;3.07;2.20;;;5.00;99.90;;;;;;5062053;28;20225;-72
2021/01/19 12:51:20;;;;;;;2.20;2.00;;;5.00;99.90;;;;;;5063112;28;20178;-71
2021/01/19 12:53:46;;;;;;;8.43;2.53;;;4.90;99.90;;;;;;5063810;28;20189;-71
2021/01/19 12:56:13;;;;;;;6.10;2.63;;;4.90;99.90;;;;;;5063663;28;20797;-71
2021/01/19 12:58:40;;;;;;;3.93;2.03;;;5.00;99.90;;;;;;5061326;28;20865;-71
2021/01/19 13:01:06;;;;;;;4.23;2.40;;;5.00;99.90;;;;;;5062846;28;20638;-72
2021/01/19 13:03:32;;;;;;;3.03;1.73;;;5.00;99.90;;;;;;5062871;28;20450;-72
2021/01/19 13:05:58;;;;;;;4.67;2.00;;;5.00;99.90;;;;;;5064004;28;20436;-71
2021/01/19 13:08:24;;;;;;;8.30;2.67;;;5.00;99.90;;;;;;5060838;28;20182;-73
2021/01/19 13:10:50;;;;;;;7.93;2.30;;;5.10;99.90;;;;;;5061722;28;20570;-71